createdAt,value
2023-07-25T00:01:07.062Z,1.70
2023-07-25T00:04:11.832Z,1.40
2023-07-25T00:07:16.471Z,1.55
2023-07-25T00:10:21.084Z,1.70
2023-07-25T00:13:26.669Z,1.58
2023-07-25T00:16:31.705Z,1.48
2023-07-25T00:19:36.510Z,1.85
2023-07-25T00:22:41.101Z,1.60
2023-07-25T00:25:45.801Z,1.52
2023-07-25T00:28:50.185Z,1.33
2023-07-25T00:31:55.064Z,1.40
2023-07-25T00:34:59.857Z,1.50
2023-07-25T00:38:05.884Z,1.70
2023-07-25T00:41:10.480Z,1.58
2023-07-25T00:44:15.118Z,1.40
2023-07-25T00:47:22.957Z,1.50
2023-07-25T00:50:28.493Z,1.48
2023-07-25T00:53:33.732Z,1.75
2023-07-25T00:56:38.454Z,1.83
2023-07-25T00:59:43.589Z,1.55
2023-07-25T01:02:48.455Z,1.70
2023-07-25T01:05:53.409Z,2.00
2023-07-25T01:08:57.957Z,1.60
2023-07-25T01:12:05.173Z,1.42
2023-07-25T01:15:10.354Z,1.63
2023-07-25T01:18:15.611Z,1.67
2023-07-25T01:21:23.019Z,1.80
2023-07-25T01:24:27.791Z,1.80
2023-07-25T01:27:32.635Z,1.58
2023-07-25T01:30:37.142Z,1.83
2023-07-25T01:33:41.919Z,1.63
2023-07-25T01:36:46.728Z,1.55
2023-07-25T01:39:51.635Z,1.80
2023-07-25T01:42:56.630Z,1.77
2023-07-25T01:46:01.320Z,1.40
2023-07-25T01:49:05.961Z,1.90
2023-07-25T01:52:10.683Z,1.50
2023-07-25T01:55:15.707Z,1.60
2023-07-25T01:58:20.555Z,1.55
2023-07-25T02:01:25.065Z,1.50
2023-07-25T02:04:29.907Z,1.73
2023-07-25T02:07:34.454Z,1.70
2023-07-25T02:10:39.336Z,1.70
2023-07-25T02:13:44.082Z,1.58
2023-07-25T02:16:48.631Z,1.67
2023-07-25T02:19:53.370Z,1.90
2023-07-25T02:22:58.155Z,1.58
2023-07-25T02:26:02.573Z,1.38
2023-07-25T02:29:07.401Z,1.80
2023-07-25T02:32:12.144Z,1.80
2023-07-25T02:35:16.716Z,1.70
2023-07-25T02:38:21.423Z,1.58
2023-07-25T02:41:26.051Z,1.70
2023-07-25T02:44:30.710Z,1.20
2023-07-25T02:47:35.424Z,1.58
2023-07-25T02:50:40.371Z,1.50
2023-07-25T02:53:45.464Z,1.30
2023-07-25T02:56:49.924Z,1.40
2023-07-25T02:59:54.649Z,1.42
2023-07-25T03:02:59.450Z,1.33
2023-07-25T03:06:04.115Z,1.70
2023-07-25T03:09:09.269Z,1.52
2023-07-25T03:12:13.766Z,1.65
2023-07-25T03:15:18.532Z,1.70
2023-07-25T03:18:23.245Z,1.70
2023-07-25T03:21:27.857Z,1.70
2023-07-25T03:24:32.753Z,1.60
2023-07-25T03:27:37.975Z,1.63
2023-07-25T03:30:42.652Z,1.60
2023-07-25T03:33:49.980Z,1.50
2023-07-25T03:36:55.572Z,1.67
2023-07-25T03:39:59.997Z,1.77
2023-07-25T03:43:04.544Z,1.80
2023-07-25T03:46:09.307Z,1.70
2023-07-25T03:49:14.704Z,1.52
2023-07-25T03:52:19.471Z,1.63
2023-07-25T03:55:23.990Z,1.58
2023-07-25T03:58:28.594Z,1.40
2023-07-25T04:01:33.514Z,1.60
2023-07-25T04:04:38.795Z,1.70
2023-07-25T04:07:43.512Z,1.67
2023-07-25T04:10:48.137Z,1.50
2023-07-25T04:13:52.860Z,1.67
2023-07-25T04:16:57.593Z,1.48
2023-07-25T04:20:02.195Z,1.30
2023-07-25T04:23:07.049Z,1.25
2023-07-25T04:26:11.959Z,1.52
2023-07-25T04:29:16.604Z,1.67
2023-07-25T04:32:21.272Z,1.40
2023-07-25T04:35:25.863Z,1.38
2023-07-25T04:38:30.698Z,1.48
2023-07-25T04:41:35.538Z,1.50
2023-07-25T04:44:40.084Z,1.40
2023-07-25T04:47:44.681Z,1.30
2023-07-25T04:50:49.483Z,1.48
2023-07-25T04:53:54.330Z,1.63
2023-07-25T04:56:58.816Z,1.23
2023-07-25T05:00:08.589Z,1.33
2023-07-25T05:03:13.392Z,1.15
2023-07-25T05:06:18.180Z,1.50
2023-07-25T05:09:22.946Z,1.38
2023-07-25T05:12:27.822Z,1.38
2023-07-25T05:15:32.805Z,1.60
2023-07-25T05:18:37.788Z,1.23
2023-07-25T05:21:42.533Z,1.45
2023-07-25T05:24:47.219Z,1.48
2023-07-25T05:27:51.749Z,1.30
2023-07-25T05:30:56.638Z,1.50
2023-07-25T05:34:01.002Z,1.63
2023-07-25T05:37:07.197Z,1.45
2023-07-25T05:40:11.973Z,1.73
2023-07-25T05:43:17.775Z,1.42
2023-07-25T05:46:22.569Z,1.55
2023-07-25T05:49:27.178Z,1.63
2023-07-25T05:52:31.846Z,1.42
2023-07-25T05:55:36.719Z,1.65
2023-07-25T05:58:42.306Z,1.70
2023-07-25T06:01:47.243Z,1.90
2023-07-25T06:04:51.688Z,2.00
2023-07-25T06:07:56.693Z,1.70
2023-07-25T06:11:01.645Z,1.50
2023-07-25T06:14:09.093Z,1.50
2023-07-25T06:17:14.200Z,1.50
2023-07-25T06:20:19.083Z,1.50
2023-07-25T06:23:23.801Z,1.35
2023-07-25T06:26:29.991Z,1.35
2023-07-25T06:29:34.800Z,1.40
2023-07-25T06:32:39.634Z,1.30
2023-07-25T06:35:44.581Z,1.27
2023-07-25T06:38:49.460Z,1.60
2023-07-25T06:41:54.425Z,1.33
2023-07-25T06:44:59.489Z,1.58
2023-07-25T06:48:04.203Z,1.00
2023-07-25T06:51:09.198Z,1.25
2023-07-25T06:54:13.755Z,1.17
2023-07-25T06:57:18.379Z,1.10
2023-07-25T07:00:23.231Z,1.42
2023-07-25T07:03:27.842Z,1.13
2023-07-25T07:06:32.819Z,1.10
2023-07-25T07:09:37.568Z,1.40
2023-07-25T07:12:47.812Z,1.00
2023-07-25T07:15:52.868Z,0.70
2023-07-25T07:18:57.884Z,1.00
2023-07-25T07:22:03.060Z,1.13
2023-07-25T07:25:08.642Z,0.82
2023-07-25T07:28:14.351Z,1.08
2023-07-25T07:31:24.491Z,0.75
2023-07-25T07:34:29.392Z,1.15
2023-07-25T07:37:34.667Z,0.60
2023-07-25T07:40:39.432Z,0.90
2023-07-25T07:43:44.125Z,0.70
2023-07-25T07:46:49.260Z,1.00
2023-07-25T07:49:54.213Z,1.02
2023-07-25T07:52:58.908Z,0.70
2023-07-25T07:56:08.373Z,0.60
2023-07-25T07:59:13.249Z,0.98
2023-07-25T08:02:18.474Z,1.05
2023-07-25T08:05:23.175Z,0.82
2023-07-25T08:08:27.907Z,0.80
2023-07-25T08:11:32.914Z,0.70
2023-07-25T08:14:37.782Z,0.60
2023-07-25T08:17:42.894Z,0.60
2023-07-25T08:20:47.904Z,0.88
2023-07-25T08:23:52.904Z,0.60
2023-07-25T08:26:57.737Z,0.60
2023-07-25T08:30:02.672Z,0.63
2023-07-25T08:33:07.376Z,0.90
2023-07-25T08:36:12.249Z,0.80
2023-07-25T08:39:16.724Z,0.65
2023-07-25T08:42:26.526Z,0.63
2023-07-25T08:45:32.462Z,0.95
2023-07-25T08:48:42.577Z,0.70
2023-07-25T08:51:55.202Z,0.80
2023-07-25T08:54:59.850Z,0.55
2023-07-25T08:58:05.044Z,0.75
2023-07-25T09:01:10.582Z,0.65
2023-07-25T09:04:16.312Z,0.80
2023-07-25T09:07:21.190Z,0.77
2023-07-25T09:10:29.751Z,0.68
2023-07-25T09:13:34.809Z,0.88
2023-07-25T09:16:40.176Z,0.73
2023-07-25T09:19:44.731Z,0.70
2023-07-25T09:22:49.762Z,0.65
2023-07-25T09:26:06.273Z,0.80
2023-07-25T09:29:10.947Z,0.52
2023-07-25T09:32:22.663Z,0.63
2023-07-25T09:35:27.443Z,0.65
2023-07-25T09:38:32.127Z,0.50
2023-07-25T09:41:38.116Z,0.35
2023-07-25T09:44:52.461Z,0.50
2023-07-25T09:47:57.517Z,0.50
2023-07-25T09:51:04.226Z,0.50
2023-07-25T09:54:08.874Z,0.40
2023-07-25T09:57:13.974Z,0.40
2023-07-25T10:00:19.804Z,0.55
2023-07-25T10:03:25.367Z,0.40
2023-07-25T10:06:30.977Z,0.30
2023-07-25T10:09:35.793Z,0.40
2023-07-25T10:12:40.275Z,0.30
2023-07-25T10:15:45.364Z,0.40
2023-07-25T10:18:59.535Z,0.40
2023-07-25T10:22:04.589Z,0.30
2023-07-25T10:25:27.454Z,0.47
2023-07-25T10:28:32.267Z,0.40
2023-07-25T10:31:52.328Z,0.73
2023-07-25T10:35:05.573Z,0.40
2023-07-25T10:38:12.660Z,0.30
2023-07-25T10:41:17.770Z,0.45
2023-07-25T10:44:38.476Z,0.40
2023-07-25T10:47:45.795Z,0.57
2023-07-25T10:50:52.212Z,0.38
2023-07-25T10:54:10.784Z,0.50
2023-07-25T10:57:19.080Z,0.60
2023-07-25T11:00:37.267Z,0.40
2023-07-25T11:03:42.244Z,0.60
2023-07-25T11:06:48.476Z,0.50
2023-07-25T11:09:53.309Z,0.68
2023-07-25T11:13:01.306Z,0.40
2023-07-25T11:16:09.228Z,0.77
2023-07-25T11:19:15.471Z,0.50
2023-07-25T11:22:20.721Z,0.60
2023-07-25T11:25:25.502Z,0.60
2023-07-25T11:28:30.703Z,0.47
2023-07-25T11:31:43.308Z,0.60
2023-07-25T11:34:51.112Z,0.40
2023-07-25T11:38:02.636Z,0.45
2023-07-25T11:41:07.534Z,0.57
2023-07-25T11:44:19.545Z,0.57
2023-07-25T11:47:24.430Z,0.40
2023-07-25T11:50:33.209Z,0.40
2023-07-25T11:53:39.950Z,0.70
2023-07-25T11:56:46.271Z,0.47
2023-07-25T11:59:55.286Z,0.60
2023-07-25T12:02:59.858Z,0.30
2023-07-25T12:06:05.085Z,0.70
2023-07-25T12:09:09.934Z,0.50
2023-07-25T12:12:14.594Z,0.57
2023-07-25T12:15:19.144Z,0.50
2023-07-25T12:18:32.989Z,0.50
2023-07-25T12:24:43.832Z,0.40
2023-07-25T12:27:49.893Z,0.50
2023-07-25T12:30:54.693Z,0.40
2023-07-25T12:33:59.712Z,0.45
2023-07-25T12:37:04.476Z,0.47
2023-07-25T12:40:09.579Z,0.55
2023-07-25T12:43:14.142Z,0.60
2023-07-25T12:46:19.082Z,0.45
2023-07-25T12:49:23.566Z,0.60
2023-07-25T12:52:28.673Z,0.80
2023-07-25T12:55:35.748Z,0.43
2023-07-25T12:58:40.545Z,0.45
2023-07-25T13:01:45.417Z,0.50
2023-07-25T13:04:49.955Z,0.40
2023-07-25T13:07:54.990Z,0.68
2023-07-25T13:11:00.141Z,0.68
2023-07-25T13:14:05.659Z,0.52
2023-07-25T13:17:10.193Z,0.60
2023-07-25T13:20:14.666Z,0.65
2023-07-25T13:23:19.446Z,0.45
2023-07-25T13:26:24.222Z,0.57
2023-07-25T13:29:29.333Z,0.52
2023-07-25T13:32:34.243Z,0.75
2023-07-25T13:35:38.709Z,0.75
2023-07-25T13:38:43.334Z,0.60
2023-07-25T13:41:47.738Z,0.55
2023-07-25T13:44:52.537Z,0.55
2023-07-25T13:47:57.228Z,0.40
2023-07-25T13:51:02.094Z,0.40
2023-07-25T13:54:06.823Z,0.50
2023-07-25T13:57:11.238Z,0.50
2023-07-25T14:00:17.574Z,0.60
2023-07-25T14:03:22.383Z,0.40
2023-07-25T14:06:27.208Z,0.30
2023-07-25T14:09:32.459Z,0.50
2023-07-25T14:12:36.918Z,0.40
2023-07-25T14:15:41.334Z,0.50
2023-07-25T14:18:46.076Z,0.30
2023-07-25T14:21:50.923Z,0.50
2023-07-25T14:24:59.011Z,0.43
2023-07-25T14:28:04.471Z,0.40
2023-07-25T14:31:08.967Z,0.30
2023-07-25T14:34:13.537Z,0.40
2023-07-25T14:37:18.137Z,0.30
2023-07-25T14:40:22.951Z,0.40
2023-07-25T14:43:28.414Z,0.30
2023-07-25T14:46:33.490Z,0.43
2023-07-25T14:49:38.722Z,0.47
2023-07-25T14:52:43.253Z,0.30
2023-07-25T14:55:48.680Z,0.60
2023-07-25T14:58:53.125Z,0.40
2023-07-25T15:01:58.126Z,0.40
2023-07-25T15:05:03.234Z,0.38
2023-07-25T15:08:08.337Z,0.32
2023-07-25T15:11:15.787Z,0.40
2023-07-25T15:14:21.722Z,0.38
2023-07-25T15:17:27.880Z,0.40
2023-07-25T15:20:33.327Z,0.40
2023-07-25T15:23:37.908Z,0.40
2023-07-25T15:26:42.722Z,0.30
2023-07-25T15:29:47.257Z,0.30
2023-07-25T15:32:52.077Z,0.55
2023-07-25T15:35:58.366Z,0.40
2023-07-25T15:39:04.041Z,0.40
2023-07-25T15:42:08.875Z,0.50
2023-07-25T15:45:13.777Z,0.50
2023-07-25T15:48:18.649Z,0.52
2023-07-25T15:51:23.686Z,0.40
2023-07-25T15:54:28.534Z,0.50
2023-07-25T15:57:33.396Z,0.45
2023-07-25T16:00:38.023Z,0.60
2023-07-25T16:03:46.605Z,0.60
2023-07-25T16:06:51.757Z,0.50
2023-07-25T16:09:56.458Z,0.70
2023-07-25T16:13:03.198Z,0.45
2023-07-25T16:16:07.995Z,0.52
2023-07-25T16:19:12.885Z,0.75
2023-07-25T16:22:17.768Z,0.50
2023-07-25T16:25:22.581Z,0.55
2023-07-25T16:28:27.458Z,0.70
2023-07-25T16:31:43.452Z,0.52
2023-07-25T16:34:48.127Z,0.73
2023-07-25T16:37:52.636Z,0.60
2023-07-25T16:40:56.925Z,0.52
2023-07-25T16:44:01.965Z,0.73
2023-07-25T16:47:06.981Z,0.55
2023-07-25T16:50:11.949Z,0.80
2023-07-25T16:53:16.629Z,0.38
2023-07-25T16:56:20.987Z,0.60
2023-07-25T16:59:25.570Z,0.50
2023-07-25T17:02:30.224Z,0.60
2023-07-25T17:05:35.057Z,0.60
2023-07-25T17:08:39.767Z,0.70
2023-07-25T17:11:44.390Z,0.90
2023-07-25T17:14:49.042Z,0.70
2023-07-25T17:17:53.845Z,0.60
2023-07-25T17:20:58.765Z,0.60
2023-07-25T17:24:04.327Z,0.60
2023-07-25T17:27:09.188Z,0.60
2023-07-25T17:30:16.211Z,0.52
2023-07-25T17:33:21.347Z,0.70
2023-07-25T17:36:26.038Z,0.60
2023-07-25T17:39:30.876Z,0.60
2023-07-25T17:42:35.866Z,0.73
2023-07-25T17:45:42.266Z,0.80
2023-07-25T17:48:47.094Z,0.60
2023-07-25T17:51:51.918Z,0.80
2023-07-25T17:54:56.381Z,0.50
2023-07-25T17:58:01.093Z,0.70
2023-07-25T18:01:05.931Z,0.85
2023-07-25T18:04:10.930Z,0.68
2023-07-25T18:07:15.619Z,0.90
2023-07-25T18:10:20.177Z,0.60
2023-07-25T18:13:25.022Z,0.70
2023-07-25T18:16:29.937Z,0.75
2023-07-25T18:19:34.975Z,0.75
2023-07-25T18:22:39.950Z,0.60
2023-07-25T18:25:46.023Z,0.65
2023-07-25T18:28:50.308Z,0.70
2023-07-25T18:31:55.113Z,0.57
2023-07-25T18:35:00.048Z,0.57
2023-07-25T18:38:05.089Z,0.70
2023-07-25T18:41:10.202Z,0.70
2023-07-25T18:44:15.273Z,0.70
2023-07-25T18:47:33.644Z,0.70
2023-07-25T18:50:39.497Z,0.80
2023-07-25T18:53:44.300Z,0.60
2023-07-25T18:56:49.134Z,0.75
2023-07-25T18:59:54.226Z,0.70
2023-07-25T19:02:58.943Z,0.60
2023-07-25T19:06:03.568Z,0.77
2023-07-25T19:09:08.562Z,0.73
2023-07-25T19:12:13.297Z,0.70
2023-07-25T19:15:18.102Z,0.82
2023-07-25T19:18:22.890Z,0.80
2023-07-25T19:21:27.665Z,0.65
2023-07-25T19:24:32.533Z,1.00
2023-07-25T19:27:37.203Z,0.77
2023-07-25T19:30:44.777Z,0.95
2023-07-25T19:33:49.701Z,0.93
2023-07-25T19:36:54.709Z,0.80
2023-07-25T19:39:59.738Z,0.70
2023-07-25T19:43:04.399Z,0.70
2023-07-25T19:46:09.043Z,0.70
2023-07-25T19:49:13.776Z,0.80
2023-07-25T19:52:18.338Z,0.93
2023-07-25T19:55:23.609Z,0.80
2023-07-25T19:58:28.205Z,0.98
2023-07-25T20:01:32.780Z,0.73
2023-07-25T20:04:37.518Z,0.70
2023-07-25T20:07:42.189Z,1.00
2023-07-25T20:10:46.850Z,1.05
2023-07-25T20:13:51.787Z,0.70
2023-07-25T20:16:56.447Z,0.80
2023-07-25T20:20:01.240Z,1.00
2023-07-25T20:23:05.896Z,0.90
2023-07-25T20:26:13.103Z,0.90
2023-07-25T20:29:17.515Z,0.90
2023-07-25T20:32:22.499Z,0.63
2023-07-25T20:35:28.041Z,0.90
2023-07-25T20:38:33.873Z,0.77
2023-07-25T20:41:38.828Z,0.93
2023-07-25T20:44:43.521Z,1.30
2023-07-25T20:47:49.002Z,0.77
2023-07-25T20:50:53.742Z,1.00
2023-07-25T20:53:58.503Z,1.10
2023-07-25T20:57:03.166Z,1.00
2023-07-25T21:00:09.640Z,1.00
2023-07-25T21:03:14.771Z,1.10
2023-07-25T21:06:19.514Z,0.93
2023-07-25T21:09:24.471Z,1.00
2023-07-25T21:12:29.214Z,1.00
2023-07-25T21:15:33.971Z,1.00
2023-07-25T21:18:39.075Z,0.95
2023-07-25T21:21:44.541Z,0.85
2023-07-25T21:24:49.039Z,0.90
2023-07-25T21:27:53.665Z,1.20
2023-07-25T21:30:58.139Z,0.93
2023-07-25T21:34:04.087Z,1.23
2023-07-25T21:37:08.962Z,1.00
2023-07-25T21:40:15.203Z,1.10
2023-07-25T21:43:19.877Z,1.00
2023-07-25T21:46:24.756Z,0.80
2023-07-25T21:49:29.509Z,0.88
2023-07-25T21:52:34.302Z,0.90
2023-07-25T21:55:38.905Z,1.00
2023-07-25T21:58:45.098Z,1.08
2023-07-25T22:01:52.889Z,0.90
2023-07-25T22:04:58.139Z,1.10
2023-07-25T22:08:04.708Z,0.70
2023-07-25T22:11:09.462Z,1.00
2023-07-25T22:14:13.908Z,1.20
2023-07-25T22:17:18.963Z,0.98
2023-07-25T22:20:25.853Z,1.00
2023-07-25T22:23:34.557Z,0.90
2023-07-25T22:26:39.377Z,1.02
2023-07-25T22:29:47.692Z,1.20
2023-07-25T22:32:52.458Z,1.10
2023-07-25T22:35:57.011Z,1.00
2023-07-25T22:39:01.355Z,1.08
2023-07-25T22:42:06.844Z,0.98
2023-07-25T22:45:11.819Z,0.98
2023-07-25T22:48:16.120Z,1.10
2023-07-25T22:51:20.587Z,1.00
2023-07-25T22:54:25.496Z,0.85
2023-07-25T22:57:30.200Z,1.15
2023-07-25T23:00:34.997Z,1.20
2023-07-25T23:03:40.758Z,0.90
2023-07-25T23:06:45.574Z,1.00
2023-07-25T23:09:51.261Z,1.40
2023-07-25T23:12:56.042Z,1.15
2023-07-25T23:16:00.809Z,0.90
2023-07-25T23:19:05.646Z,0.90
2023-07-25T23:25:32.533Z,1.02
2023-07-25T23:28:37.216Z,0.98
2023-07-25T23:31:42.087Z,0.93
2023-07-25T23:34:51.888Z,1.10
2023-07-25T23:37:57.925Z,0.90
2023-07-25T23:41:02.667Z,1.10
2023-07-25T23:44:07.219Z,1.00
2023-07-25T23:47:14.762Z,0.93
2023-07-25T23:50:19.744Z,1.20
2023-07-25T23:53:24.169Z,1.35
2023-07-25T23:56:28.678Z,1.00
2023-07-25T23:59:33.279Z,0.90
